sensor_id;sensor_type;location;lat;lon;timestamp;temperature;humidity
2955;DHT22;1487;51.470;6.938;2023-06-22T00:00:43;21.40;99.90
2955;DHT22;1487;51.470;6.938;2023-06-22T00:03:10;21.40;99.90
2955;DHT22;1487;51.470;6.938;2023-06-22T00:05:37;21.40;99.90
2955;DHT22;1487;51.470;6.938;2023-06-22T00:08:04;21.40;99.90
2955;DHT22;1487;51.470;6.938;2023-06-22T00:10:31;21.40;99.90
2955;DHT22;1487;51.470;6.938;2023-06-22T00:12:59;21.40;99.90
2955;DHT22;1487;51.470;6.938;2023-06-22T00:15:26;21.40;99.90
2955;DHT22;1487;51.470;6.938;2023-06-22T00:17:53;21.40;99.90
2955;DHT22;1487;51.470;6.938;2023-06-22T00:20:20;21.40;99.90
2955;DHT22;1487;51.470;6.938;2023-06-22T00:22:48;21.40;99.90
2955;DHT22;1487;51.470;6.938;2023-06-22T00:25:15;21.40;99.90
2955;DHT22;1487;51.470;6.938;2023-06-22T00:27:41;21.40;99.90
2955;DHT22;1487;51.470;6.938;2023-06-22T00:30:11;21.40;99.90
2955;DHT22;1487;51.470;6.938;2023-06-22T00:32:37;21.30;99.90
2955;DHT22;1487;51.470;6.938;2023-06-22T00:35:05;21.30;99.90
2955;DHT22;1487;51.470;6.938;2023-06-22T00:37:31;21.30;99.90
2955;DHT22;1487;51.470;6.938;2023-06-22T00:39:58;21.20;99.90
2955;DHT22;1487;51.470;6.938;2023-06-22T00:42:25;21.20;99.90
2955;DHT22;1487;51.470;6.938;2023-06-22T00:44:52;21.20;99.90
2955;DHT22;1487;51.470;6.938;2023-06-22T00:47:20;21.20;99.90
2955;DHT22;1487;51.470;6.938;2023-06-22T00:49:48;21.10;99.90
2955;DHT22;1487;51.470;6.938;2023-06-22T00:52:17;21.10;99.90
2955;DHT22;1487;51.470;6.938;2023-06-22T00:54:46;21.00;99.90
2955;DHT22;1487;51.470;6.938;2023-06-22T00:57:14;21.00;99.90
2955;DHT22;1487;51.470;6.938;2023-06-22T00:59:42;21.00;99.90
2955;DHT22;1487;51.470;6.938;2023-06-22T01:02:09;21.00;99.90
2955;DHT22;1487;51.470;6.938;2023-06-22T01:04:38;20.90;99.90
2955;DHT22;1487;51.470;6.938;2023-06-22T01:07:21;20.90;99.90
2955;DHT22;1487;51.470;6.938;2023-06-22T01:09:56;20.90;99.90
2955;DHT22;1487;51.470;6.938;2023-06-22T01:12:25;20.90;99.90
2955;DHT22;1487;51.470;6.938;2023-06-22T01:14:58;20.90;99.90
2955;DHT22;1487;51.470;6.938;2023-06-22T01:17:28;20.90;99.90
2955;DHT22;1487;51.470;6.938;2023-06-22T01:19:57;20.90;99.90
2955;DHT22;1487;51.470;6.938;2023-06-22T01:22:30;20.90;99.90
2955;DHT22;1487;51.470;6.938;2023-06-22T01:25:04;21.00;99.90
2955;DHT22;1487;51.470;6.938;2023-06-22T01:27:40;20.90;99.90
2955;DHT22;1487;51.470;6.938;2023-06-22T01:30:16;21.00;99.90
2955;DHT22;1487;51.470;6.938;2023-06-22T01:32:43;20.90;99.90
2955;DHT22;1487;51.470;6.938;2023-06-22T01:35:11;20.80;99.90
2955;DHT22;1487;51.470;6.938;2023-06-22T01:37:38;20.80;99.90
2955;DHT22;1487;51.470;6.938;2023-06-22T01:40:07;20.80;99.90
2955;DHT22;1487;51.470;6.938;2023-06-22T01:42:35;20.80;99.90
2955;DHT22;1487;51.470;6.938;2023-06-22T01:45:03;20.70;99.90
2955;DHT22;1487;51.470;6.938;2023-06-22T01:47:32;20.70;99.90
2955;DHT22;1487;51.470;6.938;2023-06-22T01:50:00;20.70;99.90
2955;DHT22;1487;51.470;6.938;2023-06-22T01:52:27;20.60;99.90
2955;DHT22;1487;51.470;6.938;2023-06-22T01:54:54;20.60;99.90
2955;DHT22;1487;51.470;6.938;2023-06-22T01:57:23;20.60;99.90
2955;DHT22;1487;51.470;6.938;2023-06-22T01:59:55;20.60;99.90
2955;DHT22;1487;51.470;6.938;2023-06-22T02:02:24;20.60;99.90
2955;DHT22;1487;51.470;6.938;2023-06-22T02:04:58;20.60;99.90
2955;DHT22;1487;51.470;6.938;2023-06-22T02:07:29;20.50;99.90
2955;DHT22;1487;51.470;6.938;2023-06-22T02:09:59;20.50;99.90
2955;DHT22;1487;51.470;6.938;2023-06-22T02:12:28;20.40;99.90
2955;DHT22;1487;51.470;6.938;2023-06-22T02:14:56;20.40;99.90
2955;DHT22;1487;51.470;6.938;2023-06-22T02:17:26;20.40;99.90
2955;DHT22;1487;51.470;6.938;2023-06-22T02:19:53;20.40;99.90
2955;DHT22;1487;51.470;6.938;2023-06-22T02:22:21;20.30;99.90
2955;DHT22;1487;51.470;6.938;2023-06-22T02:24:49;20.30;99.90
2955;DHT22;1487;51.470;6.938;2023-06-22T02:27:16;20.30;99.90
2955;DHT22;1487;51.470;6.938;2023-06-22T02:29:42;20.30;99.90
2955;DHT22;1487;51.470;6.938;2023-06-22T02:32:09;20.20;99.90
2955;DHT22;1487;51.470;6.938;2023-06-22T02:34:36;20.20;99.90
2955;DHT22;1487;51.470;6.938;2023-06-22T02:37:03;20.20;99.90
2955;DHT22;1487;51.470;6.938;2023-06-22T02:39:32;20.20;99.90
2955;DHT22;1487;51.470;6.938;2023-06-22T02:41:58;20.20;99.90
2955;DHT22;1487;51.470;6.938;2023-06-22T02:44:25;20.20;99.90
2955;DHT22;1487;51.470;6.938;2023-06-22T02:46:52;20.20;99.90
2955;DHT22;1487;51.470;6.938;2023-06-22T02:49:19;20.10;99.90
2955;DHT22;1487;51.470;6.938;2023-06-22T02:51:48;20.10;99.90
2955;DHT22;1487;51.470;6.938;2023-06-22T02:54:15;20.10;99.90
2955;DHT22;1487;51.470;6.938;2023-06-22T02:56:43;20.10;99.90
2955;DHT22;1487;51.470;6.938;2023-06-22T02:59:10;20.10;99.90
2955;DHT22;1487;51.470;6.938;2023-06-22T03:01:37;20.00;99.90
2955;DHT22;1487;51.470;6.938;2023-06-22T03:04:05;20.10;99.90
2955;DHT22;1487;51.470;6.938;2023-06-22T03:06:32;20.10;99.90
2955;DHT22;1487;51.470;6.938;2023-06-22T03:09:00;20.00;99.90
2955;DHT22;1487;51.470;6.938;2023-06-22T03:11:29;20.00;99.90
2955;DHT22;1487;51.470;6.938;2023-06-22T03:13:57;20.00;99.90
2955;DHT22;1487;51.470;6.938;2023-06-22T03:16:24;20.00;99.90
2955;DHT22;1487;51.470;6.938;2023-06-22T03:18:51;19.90;99.90
2955;DHT22;1487;51.470;6.938;2023-06-22T03:21:19;19.90;99.90
2955;DHT22;1487;51.470;6.938;2023-06-22T03:23:45;19.80;99.90
2955;DHT22;1487;51.470;6.938;2023-06-22T03:26:12;19.80;99.90
2955;DHT22;1487;51.470;6.938;2023-06-22T03:28:39;19.80;99.90
2955;DHT22;1487;51.470;6.938;2023-06-22T03:31:07;19.80;99.90
2955;DHT22;1487;51.470;6.938;2023-06-22T03:33:34;19.80;99.90
2955;DHT22;1487;51.470;6.938;2023-06-22T03:36:01;19.80;99.90
2955;DHT22;1487;51.470;6.938;2023-06-22T03:38:28;19.70;99.90
2955;DHT22;1487;51.470;6.938;2023-06-22T03:40:55;19.70;99.90
2955;DHT22;1487;51.470;6.938;2023-06-22T03:43:22;19.70;99.90
2955;DHT22;1487;51.470;6.938;2023-06-22T03:45:49;19.70;99.90
2955;DHT22;1487;51.470;6.938;2023-06-22T03:48:17;19.70;99.90
2955;DHT22;1487;51.470;6.938;2023-06-22T03:50:44;19.70;99.90
2955;DHT22;1487;51.470;6.938;2023-06-22T03:53:11;19.80;99.90
2955;DHT22;1487;51.470;6.938;2023-06-22T03:55:42;19.80;99.90
2955;DHT22;1487;51.470;6.938;2023-06-22T03:58:14;19.80;99.90
2955;DHT22;1487;51.470;6.938;2023-06-22T04:00:41;19.90;99.90
2955;DHT22;1487;51.470;6.938;2023-06-22T04:03:08;20.00;99.90
2955;DHT22;1487;51.470;6.938;2023-06-22T04:05:36;20.00;99.90
2955;DHT22;1487;51.470;6.938;2023-06-22T04:08:04;20.00;99.90
2955;DHT22;1487;51.470;6.938;2023-06-22T04:10:34;20.00;99.90
2955;DHT22;1487;51.470;6.938;2023-06-22T04:13:04;20.10;99.90
2955;DHT22;1487;51.470;6.938;2023-06-22T04:15:31;20.10;99.90
2955;DHT22;1487;51.470;6.938;2023-06-22T04:17:57;20.10;99.90
2955;DHT22;1487;51.470;6.938;2023-06-22T04:20:24;20.10;99.90
2955;DHT22;1487;51.470;6.938;2023-06-22T04:22:53;20.20;99.90
2955;DHT22;1487;51.470;6.938;2023-06-22T04:25:20;20.20;99.90
2955;DHT22;1487;51.470;6.938;2023-06-22T04:27:47;20.30;99.90
2955;DHT22;1487;51.470;6.938;2023-06-22T04:30:14;20.30;99.90
2955;DHT22;1487;51.470;6.938;2023-06-22T04:32:42;20.40;99.90
2955;DHT22;1487;51.470;6.938;2023-06-22T04:35:09;20.50;99.90
2955;DHT22;1487;51.470;6.938;2023-06-22T04:37:36;20.60;99.90
2955;DHT22;1487;51.470;6.938;2023-06-22T04:40:06;20.60;99.90
2955;DHT22;1487;51.470;6.938;2023-06-22T04:42:34;20.60;99.90
2955;DHT22;1487;51.470;6.938;2023-06-22T04:45:01;20.60;99.90
2955;DHT22;1487;51.470;6.938;2023-06-22T04:47:27;20.70;99.90
2955;DHT22;1487;51.470;6.938;2023-06-22T04:49:54;20.60;99.90
2955;DHT22;1487;51.470;6.938;2023-06-22T04:52:21;20.40;99.90
2955;DHT22;1487;51.470;6.938;2023-06-22T04:54:48;20.40;99.90
2955;DHT22;1487;51.470;6.938;2023-06-22T04:57:17;20.30;99.90
2955;DHT22;1487;51.470;6.938;2023-06-22T04:59:44;20.30;99.90
2955;DHT22;1487;51.470;6.938;2023-06-22T05:02:11;20.30;99.90
2955;DHT22;1487;51.470;6.938;2023-06-22T05:04:37;20.30;99.90
2955;DHT22;1487;51.470;6.938;2023-06-22T05:07:05;20.20;99.90
2955;DHT22;1487;51.470;6.938;2023-06-22T05:09:32;20.20;99.90
2955;DHT22;1487;51.470;6.938;2023-06-22T05:12:00;20.20;99.90
2955;DHT22;1487;51.470;6.938;2023-06-22T05:14:29;20.30;99.90
2955;DHT22;1487;51.470;6.938;2023-06-22T05:16:56;20.30;99.90
2955;DHT22;1487;51.470;6.938;2023-06-22T05:19:24;20.30;99.90
2955;DHT22;1487;51.470;6.938;2023-06-22T05:21:58;20.40;99.90
2955;DHT22;1487;51.470;6.938;2023-06-22T05:24:25;20.40;99.90
2955;DHT22;1487;51.470;6.938;2023-06-22T05:26:52;20.50;99.90
2955;DHT22;1487;51.470;6.938;2023-06-22T05:29:19;20.60;99.90
2955;DHT22;1487;51.470;6.938;2023-06-22T05:31:48;20.50;99.90
2955;DHT22;1487;51.470;6.938;2023-06-22T05:34:15;20.50;99.90
2955;DHT22;1487;51.470;6.938;2023-06-22T05:36:42;20.40;99.90
2955;DHT22;1487;51.470;6.938;2023-06-22T05:39:13;20.30;99.90
2955;DHT22;1487;51.470;6.938;2023-06-22T05:41:40;20.30;99.90
2955;DHT22;1487;51.470;6.938;2023-06-22T05:44:08;20.30;99.90
2955;DHT22;1487;51.470;6.938;2023-06-22T05:46:35;20.30;99.90
2955;DHT22;1487;51.470;6.938;2023-06-22T05:49:03;20.30;99.90
2955;DHT22;1487;51.470;6.938;2023-06-22T05:51:30;20.20;99.90
2955;DHT22;1487;51.470;6.938;2023-06-22T05:53:57;20.00;99.90
2955;DHT22;1487;51.470;6.938;2023-06-22T05:56:23;19.80;99.90
2955;DHT22;1487;51.470;6.938;2023-06-22T05:58:50;19.70;99.90
2955;DHT22;1487;51.470;6.938;2023-06-22T06:01:17;19.60;99.90
2955;DHT22;1487;51.470;6.938;2023-06-22T06:03:44;19.40;99.90
2955;DHT22;1487;51.470;6.938;2023-06-22T06:06:12;19.30;99.90
2955;DHT22;1487;51.470;6.938;2023-06-22T06:08:39;19.30;99.90
2955;DHT22;1487;51.470;6.938;2023-06-22T06:11:06;19.20;99.90
2955;DHT22;1487;51.470;6.938;2023-06-22T06:13:32;19.20;99.90
2955;DHT22;1487;51.470;6.938;2023-06-22T06:15:59;19.20;99.90
2955;DHT22;1487;51.470;6.938;2023-06-22T06:18:26;19.10;99.90
2955;DHT22;1487;51.470;6.938;2023-06-22T06:20:53;19.10;99.90
2955;DHT22;1487;51.470;6.938;2023-06-22T06:23:21;19.20;99.90
2955;DHT22;1487;51.470;6.938;2023-06-22T06:25:48;19.20;99.90
2955;DHT22;1487;51.470;6.938;2023-06-22T06:28:14;19.20;99.90
2955;DHT22;1487;51.470;6.938;2023-06-22T06:30:42;19.20;99.90
2955;DHT22;1487;51.470;6.938;2023-06-22T06:33:09;19.20;99.90
2955;DHT22;1487;51.470;6.938;2023-06-22T06:35:36;19.30;99.90
2955;DHT22;1487;51.470;6.938;2023-06-22T06:38:03;19.30;99.90
2955;DHT22;1487;51.470;6.938;2023-06-22T06:40:31;19.40;99.90
2955;DHT22;1487;51.470;6.938;2023-06-22T06:42:58;19.40;99.90
2955;DHT22;1487;51.470;6.938;2023-06-22T06:45:25;19.50;99.90
2955;DHT22;1487;51.470;6.938;2023-06-22T06:47:54;19.50;99.90
2955;DHT22;1487;51.470;6.938;2023-06-22T06:50:20;19.60;99.90
2955;DHT22;1487;51.470;6.938;2023-06-22T06:52:47;19.50;99.90
2955;DHT22;1487;51.470;6.938;2023-06-22T06:55:15;19.50;99.90
2955;DHT22;1487;51.470;6.938;2023-06-22T06:57:44;19.60;99.90
2955;DHT22;1487;51.470;6.938;2023-06-22T07:00:14;19.60;99.90
2955;DHT22;1487;51.470;6.938;2023-06-22T07:02:43;19.70;99.90
2955;DHT22;1487;51.470;6.938;2023-06-22T07:05:11;19.70;99.90
2955;DHT22;1487;51.470;6.938;2023-06-22T07:07:38;19.80;99.90
2955;DHT22;1487;51.470;6.938;2023-06-22T07:10:07;19.90;99.90
2955;DHT22;1487;51.470;6.938;2023-06-22T07:12:34;19.90;99.90
2955;DHT22;1487;51.470;6.938;2023-06-22T07:15:04;20.00;99.90
2955;DHT22;1487;51.470;6.938;2023-06-22T07:17:33;20.10;99.90
2955;DHT22;1487;51.470;6.938;2023-06-22T07:20:00;20.20;99.90
2955;DHT22;1487;51.470;6.938;2023-06-22T07:22:27;20.20;99.90
2955;DHT22;1487;51.470;6.938;2023-06-22T07:24:54;20.30;99.90
2955;DHT22;1487;51.470;6.938;2023-06-22T07:27:21;20.40;99.90
2955;DHT22;1487;51.470;6.938;2023-06-22T07:29:48;20.40;99.90
2955;DHT22;1487;51.470;6.938;2023-06-22T07:32:16;20.60;99.90
2955;DHT22;1487;51.470;6.938;2023-06-22T07:34:43;20.70;99.90
2955;DHT22;1487;51.470;6.938;2023-06-22T07:37:10;20.80;99.90
2955;DHT22;1487;51.470;6.938;2023-06-22T07:39:36;20.80;99.90
2955;DHT22;1487;51.470;6.938;2023-06-22T07:42:04;20.70;99.90
2955;DHT22;1487;51.470;6.938;2023-06-22T07:44:31;20.80;99.90
2955;DHT22;1487;51.470;6.938;2023-06-22T07:46:57;20.70;99.90
2955;DHT22;1487;51.470;6.938;2023-06-22T07:49:25;20.70;99.90
2955;DHT22;1487;51.470;6.938;2023-06-22T07:51:52;20.70;99.90
2955;DHT22;1487;51.470;6.938;2023-06-22T07:54:19;20.70;99.90
2955;DHT22;1487;51.470;6.938;2023-06-22T07:56:46;20.90;99.90
2955;DHT22;1487;51.470;6.938;2023-06-22T07:59:13;21.00;99.90
2955;DHT22;1487;51.470;6.938;2023-06-22T08:01:40;21.10;99.90
2955;DHT22;1487;51.470;6.938;2023-06-22T08:04:06;21.10;99.90
2955;DHT22;1487;51.470;6.938;2023-06-22T08:06:35;21.10;99.90
2955;DHT22;1487;51.470;6.938;2023-06-22T08:09:02;21.20;99.90
2955;DHT22;1487;51.470;6.938;2023-06-22T08:11:29;21.20;99.90
2955;DHT22;1487;51.470;6.938;2023-06-22T08:13:56;21.20;99.90
2955;DHT22;1487;51.470;6.938;2023-06-22T08:16:24;21.20;99.90
2955;DHT22;1487;51.470;6.938;2023-06-22T08:18:50;21.30;99.90
2955;DHT22;1487;51.470;6.938;2023-06-22T08:21:17;21.30;99.90
2955;DHT22;1487;51.470;6.938;2023-06-22T08:23:45;21.40;99.90
2955;DHT22;1487;51.470;6.938;2023-06-22T08:26:12;21.40;99.90
2955;DHT22;1487;51.470;6.938;2023-06-22T08:28:39;21.40;99.90
2955;DHT22;1487;51.470;6.938;2023-06-22T08:31:05;21.50;99.90
2955;DHT22;1487;51.470;6.938;2023-06-22T08:33:32;21.50;99.90
2955;DHT22;1487;51.470;6.938;2023-06-22T08:35:59;21.70;99.90
2955;DHT22;1487;51.470;6.938;2023-06-22T08:38:26;21.80;99.90
2955;DHT22;1487;51.470;6.938;2023-06-22T08:40:54;21.80;99.90
2955;DHT22;1487;51.470;6.938;2023-06-22T08:43:21;21.80;99.90
2955;DHT22;1487;51.470;6.938;2023-06-22T08:45:48;21.90;99.90
2955;DHT22;1487;51.470;6.938;2023-06-22T08:48:14;22.00;99.90
2955;DHT22;1487;51.470;6.938;2023-06-22T08:50:41;22.10;99.90
2955;DHT22;1487;51.470;6.938;2023-06-22T08:53:08;22.20;99.90
2955;DHT22;1487;51.470;6.938;2023-06-22T08:55:35;22.30;99.90
2955;DHT22;1487;51.470;6.938;2023-06-22T08:58:03;22.30;99.90
2955;DHT22;1487;51.470;6.938;2023-06-22T09:00:30;22.40;99.90
2955;DHT22;1487;51.470;6.938;2023-06-22T09:03:00;22.30;99.90
2955;DHT22;1487;51.470;6.938;2023-06-22T09:05:27;22.30;99.90
2955;DHT22;1487;51.470;6.938;2023-06-22T09:07:54;22.20;99.90
2955;DHT22;1487;51.470;6.938;2023-06-22T09:10:21;22.10;99.90
2955;DHT22;1487;51.470;6.938;2023-06-22T09:12:48;22.20;99.90
2955;DHT22;1487;51.470;6.938;2023-06-22T09:15:16;22.40;99.90
2955;DHT22;1487;51.470;6.938;2023-06-22T09:17:43;22.60;99.90
2955;DHT22;1487;51.470;6.938;2023-06-22T09:20:11;22.60;99.90
2955;DHT22;1487;51.470;6.938;2023-06-22T09:22:39;22.70;99.90
2955;DHT22;1487;51.470;6.938;2023-06-22T09:25:06;22.70;99.90
2955;DHT22;1487;51.470;6.938;2023-06-22T09:27:33;22.70;99.90
2955;DHT22;1487;51.470;6.938;2023-06-22T09:30:00;22.70;99.90
2955;DHT22;1487;51.470;6.938;2023-06-22T09:32:29;22.70;99.90
2955;DHT22;1487;51.470;6.938;2023-06-22T09:34:56;22.80;99.90
2955;DHT22;1487;51.470;6.938;2023-06-22T09:37:23;22.90;99.90
2955;DHT22;1487;51.470;6.938;2023-06-22T09:39:50;23.10;99.90
2955;DHT22;1487;51.470;6.938;2023-06-22T09:42:16;23.50;99.90
2955;DHT22;1487;51.470;6.938;2023-06-22T09:44:43;24.10;99.90
2955;DHT22;1487;51.470;6.938;2023-06-22T09:47:10;24.40;99.90
2955;DHT22;1487;51.470;6.938;2023-06-22T09:49:38;24.50;99.90
2955;DHT22;1487;51.470;6.938;2023-06-22T09:52:06;24.70;99.90
2955;DHT22;1487;51.470;6.938;2023-06-22T09:54:33;24.70;99.90
2955;DHT22;1487;51.470;6.938;2023-06-22T09:56:59;24.40;99.90
2955;DHT22;1487;51.470;6.938;2023-06-22T09:59:26;24.20;99.90
2955;DHT22;1487;51.470;6.938;2023-06-22T10:01:53;24.40;99.90
2955;DHT22;1487;51.470;6.938;2023-06-22T10:04:20;24.80;99.90
2955;DHT22;1487;51.470;6.938;2023-06-22T10:06:48;25.40;99.90
2955;DHT22;1487;51.470;6.938;2023-06-22T10:09:14;25.90;99.90
2955;DHT22;1487;51.470;6.938;2023-06-22T10:11:41;26.40;99.90
2955;DHT22;1487;51.470;6.938;2023-06-22T10:14:08;26.90;99.90
2955;DHT22;1487;51.470;6.938;2023-06-22T10:16:36;27.20;99.90
2955;DHT22;1487;51.470;6.938;2023-06-22T10:19:03;27.60;99.90
2955;DHT22;1487;51.470;6.938;2023-06-22T10:21:30;28.20;99.90
2955;DHT22;1487;51.470;6.938;2023-06-22T10:23:58;28.70;99.90
2955;DHT22;1487;51.470;6.938;2023-06-22T10:26:31;29.00;99.90
2955;DHT22;1487;51.470;6.938;2023-06-22T10:28:58;29.30;99.90
2955;DHT22;1487;51.470;6.938;2023-06-22T10:31:25;29.50;99.90
2955;DHT22;1487;51.470;6.938;2023-06-22T10:33:53;29.90;99.90
2955;DHT22;1487;51.470;6.938;2023-06-22T10:36:20;30.40;99.90
2955;DHT22;1487;51.470;6.938;2023-06-22T10:38:47;30.20;99.90
2955;DHT22;1487;51.470;6.938;2023-06-22T10:41:15;30.10;99.90
2955;DHT22;1487;51.470;6.938;2023-06-22T10:43:42;29.90;99.90
2955;DHT22;1487;51.470;6.938;2023-06-22T10:46:09;29.60;99.90
2955;DHT22;1487;51.470;6.938;2023-06-22T10:48:36;29.10;99.90
2955;DHT22;1487;51.470;6.938;2023-06-22T10:51:03;28.80;99.90
2955;DHT22;1487;51.470;6.938;2023-06-22T10:53:29;28.50;99.90
2955;DHT22;1487;51.470;6.938;2023-06-22T10:55:56;28.20;99.90
2955;DHT22;1487;51.470;6.938;2023-06-22T10:58:24;27.90;99.90
2955;DHT22;1487;51.470;6.938;2023-06-22T11:00:52;27.60;99.90
2955;DHT22;1487;51.470;6.938;2023-06-22T11:03:18;27.20;99.90
2955;DHT22;1487;51.470;6.938;2023-06-22T11:05:45;26.90;99.90
2955;DHT22;1487;51.470;6.938;2023-06-22T11:08:13;26.80;99.90
2955;DHT22;1487;51.470;6.938;2023-06-22T11:10:40;26.50;99.90
2955;DHT22;1487;51.470;6.938;2023-06-22T11:13:06;26.30;99.90
2955;DHT22;1487;51.470;6.938;2023-06-22T11:15:36;26.00;99.90
2955;DHT22;1487;51.470;6.938;2023-06-22T11:18:03;26.00;99.90
2955;DHT22;1487;51.470;6.938;2023-06-22T11:20:33;25.80;99.90
2955;DHT22;1487;51.470;6.938;2023-06-22T11:23:04;25.70;99.90
2955;DHT22;1487;51.470;6.938;2023-06-22T11:25:32;25.50;99.90
2955;DHT22;1487;51.470;6.938;2023-06-22T11:28:01;25.20;99.90
2955;DHT22;1487;51.470;6.938;2023-06-22T11:30:28;25.00;99.90
2955;DHT22;1487;51.470;6.938;2023-06-22T11:32:56;24.70;99.90
2955;DHT22;1487;51.470;6.938;2023-06-22T11:35:23;24.40;99.90
2955;DHT22;1487;51.470;6.938;2023-06-22T11:37:50;24.10;99.90
2955;DHT22;1487;51.470;6.938;2023-06-22T11:40:16;23.90;99.90
2955;DHT22;1487;51.470;6.938;2023-06-22T11:42:43;23.60;99.90
2955;DHT22;1487;51.470;6.938;2023-06-22T11:45:10;23.40;99.90
2955;DHT22;1487;51.470;6.938;2023-06-22T11:47:37;23.20;99.90
2955;DHT22;1487;51.470;6.938;2023-06-22T11:50:07;23.00;99.90
2955;DHT22;1487;51.470;6.938;2023-06-22T11:52:34;22.80;99.90
2955;DHT22;1487;51.470;6.938;2023-06-22T11:55:02;22.70;99.90
2955;DHT22;1487;51.470;6.938;2023-06-22T11:57:32;22.50;99.90
2955;DHT22;1487;51.470;6.938;2023-06-22T11:59:59;22.40;99.90
2955;DHT22;1487;51.470;6.938;2023-06-22T12:02:26;22.40;99.90
2955;DHT22;1487;51.470;6.938;2023-06-22T12:04:52;22.30;99.90
2955;DHT22;1487;51.470;6.938;2023-06-22T12:07:23;22.10;99.90
2955;DHT22;1487;51.470;6.938;2023-06-22T12:09:49;22.10;99.90
2955;DHT22;1487;51.470;6.938;2023-06-22T12:12:16;22.10;99.90
2955;DHT22;1487;51.470;6.938;2023-06-22T12:14:43;22.00;99.90
2955;DHT22;1487;51.470;6.938;2023-06-22T12:17:10;22.00;99.90
2955;DHT22;1487;51.470;6.938;2023-06-22T12:19:37;21.90;99.90
2955;DHT22;1487;51.470;6.938;2023-06-22T12:22:04;21.90;99.90
2955;DHT22;1487;51.470;6.938;2023-06-22T12:24:32;21.80;99.90
2955;DHT22;1487;51.470;6.938;2023-06-22T12:26:59;21.80;99.90
2955;DHT22;1487;51.470;6.938;2023-06-22T12:29:25;21.80;99.90
2955;DHT22;1487;51.470;6.938;2023-06-22T12:31:52;21.80;99.90
2955;DHT22;1487;51.470;6.938;2023-06-22T12:34:19;21.80;99.90
2955;DHT22;1487;51.470;6.938;2023-06-22T12:36:46;21.80;99.90
2955;DHT22;1487;51.470;6.938;2023-06-22T12:39:14;21.90;99.90
2955;DHT22;1487;51.470;6.938;2023-06-22T12:41:42;21.90;99.90
2955;DHT22;1487;51.470;6.938;2023-06-22T12:44:08;22.10;99.90
2955;DHT22;1487;51.470;6.938;2023-06-22T12:46:35;22.10;99.90
2955;DHT22;1487;51.470;6.938;2023-06-22T12:49:03;22.10;99.90
2955;DHT22;1487;51.470;6.938;2023-06-22T12:51:30;22.10;99.90
2955;DHT22;1487;51.470;6.938;2023-06-22T12:53:57;22.10;99.90
2955;DHT22;1487;51.470;6.938;2023-06-22T12:56:25;22.10;99.90
2955;DHT22;1487;51.470;6.938;2023-06-22T12:58:53;22.00;99.90
2955;DHT22;1487;51.470;6.938;2023-06-22T13:01:20;22.00;99.90
2955;DHT22;1487;51.470;6.938;2023-06-22T13:03:47;22.00;99.90
2955;DHT22;1487;51.470;6.938;2023-06-22T13:06:14;22.00;99.90
2955;DHT22;1487;51.470;6.938;2023-06-22T13:08:41;21.90;99.90
2955;DHT22;1487;51.470;6.938;2023-06-22T13:11:08;21.90;99.90
2955;DHT22;1487;51.470;6.938;2023-06-22T13:13:35;21.90;99.90
2955;DHT22;1487;51.470;6.938;2023-06-22T13:16:03;21.90;99.90
2955;DHT22;1487;51.470;6.938;2023-06-22T13:18:30;21.90;99.90
2955;DHT22;1487;51.470;6.938;2023-06-22T13:20:57;22.00;99.90
2955;DHT22;1487;51.470;6.938;2023-06-22T13:23:25;22.10;99.90
2955;DHT22;1487;51.470;6.938;2023-06-22T13:25:52;22.10;99.90
2955;DHT22;1487;51.470;6.938;2023-06-22T13:28:19;22.20;99.90
2955;DHT22;1487;51.470;6.938;2023-06-22T13:30:46;22.20;99.90
2955;DHT22;1487;51.470;6.938;2023-06-22T13:33:15;22.10;99.90
2955;DHT22;1487;51.470;6.938;2023-06-22T13:35:42;22.00;99.90
2955;DHT22;1487;51.470;6.938;2023-06-22T13:38:09;22.00;99.90
2955;DHT22;1487;51.470;6.938;2023-06-22T13:40:35;22.00;99.90
2955;DHT22;1487;51.470;6.938;2023-06-22T13:43:03;22.00;99.90
2955;DHT22;1487;51.470;6.938;2023-06-22T13:45:30;22.00;99.90
2955;DHT22;1487;51.470;6.938;2023-06-22T13:47:57;22.10;99.90
2955;DHT22;1487;51.470;6.938;2023-06-22T13:50:25;22.10;99.90
2955;DHT22;1487;51.470;6.938;2023-06-22T13:52:52;22.30;99.90
2955;DHT22;1487;51.470;6.938;2023-06-22T13:55:19;22.60;99.90
2955;DHT22;1487;51.470;6.938;2023-06-22T13:57:46;22.70;99.90
2955;DHT22;1487;51.470;6.938;2023-06-22T14:00:14;22.90;99.90
2955;DHT22;1487;51.470;6.938;2023-06-22T14:02:40;22.90;99.90
2955;DHT22;1487;51.470;6.938;2023-06-22T14:05:08;23.00;99.90
2955;DHT22;1487;51.470;6.938;2023-06-22T14:07:37;23.10;99.90
2955;DHT22;1487;51.470;6.938;2023-06-22T14:10:05;23.10;99.90
2955;DHT22;1487;51.470;6.938;2023-06-22T14:12:32;23.10;99.90
2955;DHT22;1487;51.470;6.938;2023-06-22T14:15:00;23.20;99.90
2955;DHT22;1487;51.470;6.938;2023-06-22T14:17:26;23.10;99.90
2955;DHT22;1487;51.470;6.938;2023-06-22T14:19:53;23.10;99.90
2955;DHT22;1487;51.470;6.938;2023-06-22T14:22:20;23.00;99.90
2955;DHT22;1487;51.470;6.938;2023-06-22T14:24:49;23.00;99.90
2955;DHT22;1487;51.470;6.938;2023-06-22T14:27:16;23.00;99.90
2955;DHT22;1487;51.470;6.938;2023-06-22T14:29:43;23.00;99.90
2955;DHT22;1487;51.470;6.938;2023-06-22T14:32:09;23.00;99.90
2955;DHT22;1487;51.470;6.938;2023-06-22T14:34:36;23.10;99.90
2955;DHT22;1487;51.470;6.938;2023-06-22T14:37:05;23.20;99.90
2955;DHT22;1487;51.470;6.938;2023-06-22T14:39:32;23.20;99.90
2955;DHT22;1487;51.470;6.938;2023-06-22T14:42:00;23.30;99.90
2955;DHT22;1487;51.470;6.938;2023-06-22T14:44:29;23.30;99.90
2955;DHT22;1487;51.470;6.938;2023-06-22T14:46:55;23.30;99.90
2955;DHT22;1487;51.470;6.938;2023-06-22T14:49:22;23.30;99.90
2955;DHT22;1487;51.470;6.938;2023-06-22T14:51:49;23.20;99.90
2955;DHT22;1487;51.470;6.938;2023-06-22T14:54:16;23.30;99.90
2955;DHT22;1487;51.470;6.938;2023-06-22T14:56:43;23.20;99.90
2955;DHT22;1487;51.470;6.938;2023-06-22T14:59:12;23.10;99.90
2955;DHT22;1487;51.470;6.938;2023-06-22T15:01:38;23.10;99.90
2955;DHT22;1487;51.470;6.938;2023-06-22T15:04:05;23.10;99.90
2955;DHT22;1487;51.470;6.938;2023-06-22T15:06:32;23.10;99.90
2955;DHT22;1487;51.470;6.938;2023-06-22T15:08:59;23.20;99.90
2955;DHT22;1487;51.470;6.938;2023-06-22T15:11:25;23.30;99.90
2955;DHT22;1487;51.470;6.938;2023-06-22T15:13:52;23.20;99.90
2955;DHT22;1487;51.470;6.938;2023-06-22T15:16:20;23.20;99.90
2955;DHT22;1487;51.470;6.938;2023-06-22T15:18:47;23.00;99.90
2955;DHT22;1487;51.470;6.938;2023-06-22T15:21:14;22.90;99.90
2955;DHT22;1487;51.470;6.938;2023-06-22T15:23:42;22.80;99.90
2955;DHT22;1487;51.470;6.938;2023-06-22T15:26:09;22.70;99.90
2955;DHT22;1487;51.470;6.938;2023-06-22T15:28:36;22.60;99.90
2955;DHT22;1487;51.470;6.938;2023-06-22T15:31:03;22.50;99.90
2955;DHT22;1487;51.470;6.938;2023-06-22T15:33:32;22.40;99.90
2955;DHT22;1487;51.470;6.938;2023-06-22T15:35:58;22.30;99.90
2955;DHT22;1487;51.470;6.938;2023-06-22T15:38:29;22.20;99.90
2955;DHT22;1487;51.470;6.938;2023-06-22T15:40:56;22.20;99.90
2955;DHT22;1487;51.470;6.938;2023-06-22T15:43:24;22.20;99.90
2955;DHT22;1487;51.470;6.938;2023-06-22T15:45:50;22.10;99.90
2955;DHT22;1487;51.470;6.938;2023-06-22T15:48:19;22.10;99.90
2955;DHT22;1487;51.470;6.938;2023-06-22T15:50:47;22.10;99.90
2955;DHT22;1487;51.470;6.938;2023-06-22T15:53:14;22.00;99.90
2955;DHT22;1487;51.470;6.938;2023-06-22T15:55:41;21.90;99.90
2955;DHT22;1487;51.470;6.938;2023-06-22T15:58:08;21.80;99.90
2955;DHT22;1487;51.470;6.938;2023-06-22T16:00:35;21.60;99.90
2955;DHT22;1487;51.470;6.938;2023-06-22T16:03:02;21.60;99.90